Time;durP1;ratioP1;P1;durP2;ratioP2;P2;SDS_P1;SDS_P2;PMS_P1;PMS_P2;Temp;Humidity;BMP_temperature;BMP_pressure;BME280_temperature;BME280_humidity;BME280_pressure;Samples;Min_cycle;Max_cycle;Signal;HPM_P1;HPM_P2
2021/08/06 00:00:23;;;;;;;4.80;4.40;;;;;;;19.53;63.63;98763.47;4287551;33;34717;-86
2021/08/06 00:02:51;;;;;;;6.15;4.18;;;;;;;19.32;64.00;98759.31;4287541;33;33972;-86
2021/08/06 00:05:19;;;;;;;5.78;3.80;;;;;;;19.32;64.30;98760.16;4287547;33;33594;-87
2021/08/06 00:07:46;;;;;;;4.28;3.87;;;;;;;19.47;63.84;98758.50;4287590;33;32987;-87
2021/08/06 00:10:15;;;;;;;6.97;4.32;;;;;;;19.47;63.83;98766.41;4286976;33;33980;-87
2021/08/06 00:12:43;;;;;;;5.53;3.72;;;;;;;19.53;63.47;98760.84;4287403;33;36043;-86
2021/08/06 00:15:10;;;;;;;5.87;4.75;;;;;;;19.32;64.25;98773.34;4287490;33;34911;-86
2021/08/06 00:17:38;;;;;;;4.62;4.22;;;;;;;19.40;63.99;98767.69;4287541;33;33172;-86
2021/08/06 00:20:07;;;;;;;5.50;4.93;;;;;;;19.47;63.76;98767.28;4287363;33;33422;-87
2021/08/06 00:22:34;;;;;;;4.93;4.25;;;;;;;19.15;64.85;98769.84;4275467;33;33997;-87
2021/08/06 00:25:03;;;;;;;5.85;4.40;;;;;;;19.07;65.35;98767.59;4287312;33;35031;-87
2021/08/06 00:27:31;;;;;;;6.20;4.30;;;;;;;19.41;64.05;98764.13;4287481;33;33507;-86
2021/08/06 00:29:58;;;;;;;5.22;4.20;;;;;;;19.45;63.97;98771.78;4287276;33;33984;-86
2021/08/06 00:32:26;;;;;;;5.55;4.50;;;;;;;19.36;64.30;98764.38;4287043;33;34013;-87
2021/08/06 00:34:57;;;;;;;4.43;3.85;;;;;;;19.42;64.03;98761.38;4275791;33;33895;-87
2021/08/06 00:37:26;;;;;;;4.85;4.10;;;;;;;19.42;64.33;98771.94;4286986;33;33793;-86
2021/08/06 00:39:54;;;;;;;5.00;4.18;;;;;;;19.57;63.74;98771.16;4287575;33;34170;-87
2021/08/06 00:42:22;;;;;;;5.32;4.57;;;;;;;19.47;63.76;98771.69;4275381;33;34075;-87
2021/08/06 00:44:50;;;;;;;8.50;4.57;;;;;;;19.72;63.36;98766.00;4275133;33;34341;-87
2021/08/06 00:47:18;;;;;;;4.90;4.43;;;;;;;19.47;63.80;98767.28;4287278;33;33122;-87
2021/08/06 00:49:46;;;;;;;4.85;4.32;;;;;;;19.51;64.32;98768.84;4287009;33;33153;-86
2021/08/06 00:52:15;;;;;;;5.70;4.53;;;;;;;19.74;63.50;98769.41;4273626;33;80384;-86
2021/08/06 00:54:43;;;;;;;5.12;4.62;;;;;;;19.56;63.84;98766.78;4288177;33;33568;-86
2021/08/06 00:57:15;;;;;;;6.65;4.87;;;;;;;19.69;63.47;98768.78;4275967;33;33674;-86
2021/08/06 00:59:44;;;;;;;6.55;4.78;;;;;;;19.59;63.84;98766.63;4287939;33;33352;-85
2021/08/06 01:02:37;;;;;;;5.40;4.90;;;;;;;19.80;63.04;98774.37;4276173;33;35827;-86
2021/08/06 01:05:10;;;;;;;5.60;4.70;;;;;;;19.42;64.17;98779.84;4288211;33;34754;-87
2021/08/06 01:07:50;;;;;;;6.03;4.93;;;;;;;19.54;63.65;98786.25;4276182;33;32977;-87
2021/08/06 01:10:23;;;;;;;4.68;4.18;;;;;;;19.62;63.32;98783.22;4287951;33;33999;-87
2021/08/06 01:12:55;;;;;;;;;;;;;;;19.71;62.94;98782.75;4276748;33;35497;-86
2021/08/06 01:15:24;;;;;;;6.12;4.22;;;;;;;19.66;63.10;98776.88;4264308;33;34068;-86
2021/08/06 01:17:53;;;;;;;5.45;4.68;;;;;;;19.33;63.79;98775.03;4287946;33;34160;-86
2021/08/06 01:20:25;;;;;;;6.00;5.40;;;;;;;19.35;63.70;98775.78;4287595;33;33312;-86
2021/08/06 01:23:04;;;;;;;5.78;5.18;;;;;;;19.18;64.01;98778.47;4264386;33;33932;-86
2021/08/06 01:25:57;;;;;;;5.30;4.75;;;;;;;19.42;63.49;98771.94;4276185;33;34293;-86
2021/08/06 01:28:28;;;;;;;5.93;5.25;;;;;;;19.11;64.36;98771.78;4275917;33;33730;-86
2021/08/06 01:30:56;;;;;;;6.07;5.35;;;;;;;19.00;64.74;98771.47;4287951;33;33918;-86
2021/08/06 01:33:24;;;;;;;6.53;5.50;;;;;;;19.05;64.43;98777.38;4287874;33;34575;-86
2021/08/06 01:35:52;;;;;;;7.12;5.50;;;;;;;18.93;64.79;98776.19;4287837;33;34798;-86
2021/08/06 01:38:22;;;;;;;6.03;5.37;;;;;;;19.01;64.58;98783.72;4276177;33;33161;-87
2021/08/06 01:41:11;;;;;;;7.45;6.03;;;;;;;18.89;64.83;98773.81;4276094;33;34047;-86
2021/08/06 01:43:57;;;;;;;6.62;4.93;;;;;;;18.99;64.41;98775.06;4275856;33;34024;-86
2021/08/06 01:46:39;;;;;;;5.70;5.00;;;;;;;19.02;64.11;98769.59;4287840;33;34202;-86
2021/08/06 01:49:14;;;;;;;5.32;4.82;;;;;;;18.84;64.79;98775.81;4287440;33;34264;-86
2021/08/06 01:51:44;;;;;;;6.20;5.60;;;;;;;18.95;64.48;98765.56;4275390;33;33810;-86
2021/08/06 01:54:13;;;;;;;5.62;5.10;;;;;;;19.01;64.62;98773.19;4275783;33;35463;-86
2021/08/06 01:56:42;;;;;;;6.10;5.22;;;;;;;19.19;63.93;98769.62;4287605;33;34910;-86
2021/08/06 01:59:10;;;;;;;6.25;4.95;;;;;;;19.06;63.89;98771.19;4287472;33;33511;-86
2021/08/06 02:01:39;;;;;;;7.20;5.65;;;;;;;19.00;64.32;98771.47;4275606;33;33576;-86
2021/08/06 02:04:07;;;;;;;5.85;5.05;;;;;;;19.09;63.90;98765.72;4287200;33;34836;-86
2021/08/06 02:06:35;;;;;;;7.85;5.47;;;;;;;19.32;63.05;98765.44;4287270;33;34828;-86
2021/08/06 02:09:03;;;;;;;5.85;5.28;;;;;;;19.31;63.26;98763.72;4275391;33;32987;-86
2021/08/06 02:11:32;;;;;;;5.95;5.35;;;;;;;19.37;63.30;98771.31;4287280;33;33351;-86
2021/08/06 02:13:59;;;;;;;6.75;5.60;;;;;;;19.23;63.30;98779.06;4287350;33;34650;-86
2021/08/06 02:16:28;;;;;;;6.57;5.05;;;;;;;19.12;63.60;98773.50;4275333;33;33505;-86
2021/08/06 02:18:57;;;;;;;6.00;5.47;;;;;;;19.32;63.22;98781.25;4275544;33;33281;-86
2021/08/06 02:21:30;;;;;;;6.97;5.32;;;;;;;19.04;64.03;98785.38;4287368;33;34845;-86
2021/08/06 02:24:05;;;;;;;7.10;5.57;;;;;;;19.36;63.11;98784.59;4275401;33;34616;-86
2021/08/06 02:26:34;;;;;;;7.90;5.20;;;;;;;19.50;62.79;98782.94;4287011;33;34251;-86
2021/08/06 02:29:04;;;;;;;6.95;5.43;;;;;;;18.93;64.35;98783.25;4287239;33;34491;-86
2021/08/06 02:31:35;;;;;;;6.25;5.57;;;;;;;19.14;63.75;98776.91;4275381;33;33512;-86
2021/08/06 02:34:03;;;;;;;6.70;5.32;;;;;;;19.10;63.73;98772.72;4289165;33;35514;-86
2021/08/06 02:36:33;;;;;;;7.68;5.53;;;;;;;18.92;64.24;98778.94;4288838;33;34096;-87
2021/08/06 02:39:01;;;;;;;7.07;5.30;;;;;;;19.10;63.92;98778.00;4289160;33;33630;-86
2021/08/06 02:41:29;;;;;;;6.43;5.55;;;;;;;19.10;64.06;98778.00;4288950;33;34019;-86
2021/08/06 02:43:57;;;;;;;6.00;5.22;;;;;;;19.22;63.50;98782.63;4276750;33;34833;-86
2021/08/06 02:46:26;;;;;;;8.25;5.82;;;;;;;19.33;63.11;98796.13;4288948;33;34283;-86
2021/08/06 02:48:53;;;;;;;5.22;4.70;;;;;;;19.09;63.81;98791.25;4276813;33;32835;-86
2021/08/06 02:51:21;;;;;;;6.37;5.00;;;;;;;19.14;63.25;98792.72;4288510;33;33979;-86
2021/08/06 02:53:49;;;;;;;6.05;5.12;;;;;;;19.26;63.05;98802.63;4288831;33;34120;-86
2021/08/06 02:56:17;;;;;;;5.85;5.28;;;;;;;19.23;63.26;98792.25;4276649;33;33631;-86
2021/08/06 02:58:45;;;;;;;6.60;5.53;;;;;;;19.40;62.73;98797.53;4276980;33;32871;-87
2021/08/06 03:01:13;;;;;;;5.90;4.75;;;;;;;19.37;62.50;98802.97;4289014;33;33813;-86
2021/08/06 03:03:41;;;;;;;5.40;4.90;;;;;;;19.34;62.54;98807.53;4288959;33;35409;-86
2021/08/06 03:06:09;;;;;;;5.07;4.62;;;;;;;19.36;62.32;98809.19;4288724;33;34288;-86
2021/08/06 03:08:37;;;;;;;6.57;4.85;;;;;;;19.42;61.93;98800.12;4288962;33;34205;-87
2021/08/06 03:11:05;;;;;;;5.30;4.57;;;;;;;19.07;62.95;98807.13;4277020;33;34123;-86
2021/08/06 03:13:34;;;;;;;5.90;4.80;;;;;;;19.18;62.78;98806.59;4288851;33;34279;-86
2021/08/06 03:16:03;;;;;;;6.35;4.90;;;;;;;19.13;62.70;98809.47;4288953;33;34266;-86
2021/08/06 03:18:31;;;;;;;6.85;5.30;;;;;;;19.24;62.34;98811.53;4264680;33;34258;-86
2021/08/06 03:20:59;;;;;;;6.20;5.12;;;;;;;19.32;62.23;98812.03;4288836;33;34805;-86
2021/08/06 03:23:27;;;;;;;6.00;5.03;;;;;;;19.55;61.62;98798.53;4276844;33;33888;-86
2021/08/06 03:25:57;;;;;;;6.72;5.05;;;;;;;19.42;62.06;98800.12;4276995;33;34644;-86
2021/08/06 03:28:25;;;;;;;6.18;4.80;;;;;;;19.51;61.51;98811.03;4288674;33;33898;-86
2021/08/06 03:30:53;;;;;;;5.95;4.80;;;;;;;19.33;61.67;98811.94;4288614;33;34198;-86
2021/08/06 03:33:22;;;;;;;6.35;4.78;;;;;;;19.55;61.20;98812.59;4288750;33;34372;-86
2021/08/06 03:35:50;;;;;;;7.00;4.50;;;;;;;19.63;61.04;98819.25;4289690;33;33947;-86
2021/08/06 03:38:20;;;;;;;10.38;4.68;;;;;;;19.21;61.74;98817.81;4276616;33;33792;-86
2021/08/06 03:40:48;;;;;;;6.10;4.95;;;;;;;19.29;61.65;98822.72;4276683;33;33263;-86
2021/08/06 03:43:16;;;;;;;5.68;5.07;;;;;;;19.28;61.76;98816.59;4287898;33;34550;-86
2021/08/06 03:45:44;;;;;;;5.00;4.50;;;;;;;19.38;61.37;98819.63;4288692;33;34251;-86
2021/08/06 03:48:12;;;;;;;5.12;4.62;;;;;;;19.38;61.56;98822.28;4288589;33;33879;-86
2021/08/06 03:50:40;;;;;;;7.68;4.90;;;;;;;19.54;60.84;98831.97;4288471;33;33891;-86
2021/08/06 03:53:08;;;;;;;5.20;4.70;;;;;;;19.46;61.13;98828.03;4288662;33;34937;-87
2021/08/06 03:55:37;;;;;;;4.95;4.10;;;;;;;19.42;61.24;98837.03;4288685;33;34249;-86
2021/08/06 03:58:06;;;;;;;7.07;4.87;;;;;;;19.33;61.08;98835.66;4276601;33;32956;-86
2021/08/06 04:00:38;;;;;;;5.60;4.65;;;;;;;19.43;60.97;98839.59;4264672;33;33350;-86
2021/08/06 04:03:07;;;;;;;5.55;4.50;;;;;;;19.39;61.45;98824.84;4288546;33;34927;-86
2021/08/06 04:05:36;;;;;;;4.95;4.28;;;;;;;19.08;61.91;98835.19;4276631;33;33705;-86
2021/08/06 04:08:08;;;;;;;4.50;4.10;;;;;;;19.17;62.02;98837.38;4276292;33;35011;-86
2021/08/06 04:10:37;;;;;;;6.00;4.45;;;;;;;19.29;61.79;98830.62;4288715;33;34600;-86
2021/08/06 04:13:05;;;;;;;5.78;4.62;;;;;;;18.80;63.00;98821.69;4276454;33;34615;-86
2021/08/06 04:15:32;;;;;;;6.95;4.47;;;;;;;19.18;62.26;98830.31;4288271;33;34096;-86
2021/08/06 04:18:00;;;;;;;6.12;5.07;;;;;;;19.14;62.24;98834.03;4288289;33;33481;-86
2021/08/06 04:20:28;;;;;;;5.60;5.00;;;;;;;18.97;62.63;98829.59;4276454;33;34231;-86
2021/08/06 04:22:55;;;;;;;7.43;4.70;;;;;;;19.03;62.69;98831.06;4288438;33;33710;-86
2021/08/06 04:25:24;;;;;;;4.72;4.30;;;;;;;19.23;62.35;98837.06;4288498;33;34167;-86
2021/08/06 04:27:51;;;;;;;5.05;4.40;;;;;;;19.27;62.00;98836.00;4276561;33;33691;-86
2021/08/06 04:30:19;;;;;;;5.12;4.62;;;;;;;19.20;62.18;98839.00;4288169;33;34091;-86
2021/08/06 04:32:47;;;;;;;5.25;4.75;;;;;;;19.23;62.12;98847.59;4276489;33;33237;-86
2021/08/06 04:35:14;;;;;;;4.70;4.20;;;;;;;19.34;61.74;98841.78;4276240;33;33504;-86
2021/08/06 04:37:50;;;;;;;4.47;4.07;;;;;;;19.49;61.47;98848.97;4276206;33;33139;-86
2021/08/06 04:40:19;;;;;;;4.18;3.78;;;;;;;19.49;61.60;98851.59;4288248;33;34108;-86
2021/08/06 04:42:48;;;;;;;5.35;4.35;;;;;;;19.57;61.73;98850.28;4288186;33;35125;-85
2021/08/06 04:45:15;;;;;;;7.50;4.78;;;;;;;19.59;61.27;98851.03;4288471;33;34024;-86
2021/08/06 04:47:47;;;;;;;5.70;4.82;;;;;;;19.21;62.28;98857.37;4276372;33;32813;-86
2021/08/06 04:50:18;;;;;;;8.02;4.82;;;;;;;19.44;61.71;98866.81;4288043;33;33076;-86
2021/08/06 04:52:51;;;;;;;5.75;4.30;;;;;;;19.12;62.63;98865.75;4288162;33;35453;-86
2021/08/06 04:55:20;;;;;;;6.10;4.55;;;;;;;19.40;61.77;98871.38;4287660;33;34956;-86
2021/08/06 04:57:48;;;;;;;6.12;4.07;;;;;;;19.27;62.01;98872.03;4288018;33;34381;-86
2021/08/06 05:00:18;;;;;;;5.65;4.80;;;;;;;19.44;61.99;98872.09;4276077;33;34093;-85
2021/08/06 05:02:46;;;;;;;6.47;4.65;;;;;;;19.06;62.82;98867.81;4288318;33;34557;-86
2021/08/06 05:05:14;;;;;;;5.10;4.15;;;;;;;19.21;62.36;98874.97;4288067;33;34201;-86
2021/08/06 05:07:49;;;;;;;6.53;4.82;;;;;;;19.25;62.72;98876.53;4276083;33;33819;-86
2021/08/06 05:10:20;;;;;;;4.90;4.40;;;;;;;19.49;61.61;98881.44;4288257;33;33264;-85
2021/08/06 05:12:49;;;;;;;5.00;4.50;;;;;;;19.43;62.21;98880.91;4287871;33;34281;-85
2021/08/06 05:15:17;;;;;;;6.25;4.62;;;;;;;19.50;61.78;98880.53;4275922;33;33655;-85
2021/08/06 05:17:46;;;;;;;4.47;4.00;;;;;;;19.31;62.47;98887.63;4287782;33;34324;-86
2021/08/06 05:20:15;;;;;;;5.50;4.40;;;;;;;19.35;62.34;98886.53;4288010;33;34667;-86
2021/08/06 05:22:42;;;;;;;7.65;4.12;;;;;;;19.57;61.54;98891.62;4288085;33;35258;-86
2021/08/06 05:25:12;;;;;;;5.70;4.10;;;;;;;19.58;61.72;98893.34;4287841;33;33366;-86
2021/08/06 05:27:40;;;;;;;4.53;4.12;;;;;;;19.73;60.76;98891.69;4276024;33;33785;-86
2021/08/06 05:30:08;;;;;;;4.70;4.20;;;;;;;19.59;61.67;98893.25;4287777;33;34708;-85
2021/08/06 05:32:40;;;;;;;8.50;3.97;;;;;;;19.49;62.02;98878.81;4276465;33;33913;-86
2021/08/06 05:35:08;;;;;;;5.28;4.10;;;;;;;19.58;61.67;98881.00;4287679;33;33777;-86
2021/08/06 05:37:37;;;;;;;3.90;3.60;;;;;;;19.66;62.38;98879.75;4276291;33;33715;-86
2021/08/06 05:40:05;;;;;;;3.87;3.47;;;;;;;19.87;61.36;98878.66;4288688;33;34057;-86
2021/08/06 05:42:34;;;;;;;6.85;4.22;;;;;;;19.81;60.92;98881.59;4287700;33;34913;-86
2021/08/06 05:45:03;;;;;;;3.53;3.22;;;;;;;19.80;60.82;98887.81;4287389;33;34895;-86
2021/08/06 05:47:42;;;;;;;4.05;3.65;;;;;;;19.74;60.28;98890.75;4287591;33;34072;-86
2021/08/06 05:50:13;;;;;;;4.93;3.20;;;;;;;19.86;60.61;98895.41;4287657;33;34787;-87
2021/08/06 05:52:41;;;;;;;4.35;3.03;;;;;;;19.98;61.30;98900.91;4286735;33;34972;-87
2021/08/06 05:55:10;;;;;;;3.72;3.25;;;;;;;20.16;60.22;98899.06;4287049;33;34204;-88
2021/08/06 05:57:39;;;;;;;5.00;3.62;;;;;;;20.06;60.42;98900.50;4264125;33;33782;-87
2021/08/06 06:00:09;;;;;;;4.68;3.15;;;;;;;20.37;59.62;98908.53;4275575;33;34222;-88
2021/08/06 06:02:41;;;;;;;3.70;3.40;;;;;;;20.47;58.71;98911.50;4287508;33;35507;-87
2021/08/06 06:05:12;;;;;;;4.70;3.20;;;;;;;20.52;58.42;98918.25;4287733;33;33676;-89
2021/08/06 06:07:48;;;;;;;3.37;3.08;;;;;;;20.65;58.12;98921.09;4276723;33;33570;-89
2021/08/06 06:10:19;;;;;;;3.60;3.30;;;;;;;20.79;57.53;98918.53;4277315;33;33386;-89
2021/08/06 06:12:48;;;;;;;3.50;3.20;;;;;;;20.47;58.12;98928.22;4277674;33;35149;-87
2021/08/06 06:15:16;;;;;;;4.40;3.25;;;;;;;20.48;58.88;98937.00;4265419;33;34081;-85
2021/08/06 06:17:44;;;;;;;4.37;2.97;;;;;;;20.33;58.56;98933.37;4288862;33;33476;-87
2021/08/06 06:20:14;;;;;;;3.53;3.22;;;;;;;20.68;57.57;98934.16;4289922;33;33437;-89
2021/08/06 06:22:47;;;;;;;4.43;3.08;;;;;;;20.69;58.11;98922.62;4267248;33;33927;-90
2021/08/06 06:25:36;;;;;;;3.20;2.90;;;;;;;20.54;59.12;98926.13;4285683;33;34216;-91
2021/08/06 06:28:18;;;;;;;3.72;3.28;;;;;;;20.79;58.26;98916.75;4284042;33;32794;-89
2021/08/06 06:30:46;;;;;;;3.60;2.85;;;;;;;21.09;57.13;98918.63;4286703;33;33999;-88
2021/08/06 06:33:14;;;;;;;3.60;2.50;;;;;;;20.97;56.52;98916.69;4286542;33;35502;-88
2021/08/06 06:35:43;;;;;;;3.95;2.90;;;;;;;20.80;56.96;98918.44;4274515;33;34416;-88
2021/08/06 06:38:10;;;;;;;3.30;3.00;;;;;;;21.01;56.87;98915.56;4263701;33;34390;-88
2021/08/06 06:40:38;;;;;;;3.08;2.83;;;;;;;21.12;56.01;98916.69;4276008;33;34769;-89
2021/08/06 06:43:07;;;;;;;6.03;2.42;;;;;;;20.87;56.31;98919.81;4239875;33;34911;-89
2021/08/06 06:45:35;;;;;;;2.97;2.55;;;;;;;21.14;56.32;98919.22;4262956;33;34934;-88
2021/08/06 06:48:07;;;;;;;6.70;3.15;;;;;;;21.25;55.52;98920.31;4263234;33;34217;-91
2021/08/06 06:50:40;;;;;;;5.05;2.50;;;;;;;21.05;55.26;98917.13;4263435;33;34848;-87
2021/08/06 06:53:08;;;;;;;5.55;2.55;;;;;;;21.40;55.75;98921.25;4251276;33;34636;-88
2021/08/06 06:55:36;;;;;;;3.45;2.55;;;;;;;21.50;55.50;98917.13;4262655;33;34888;-85
2021/08/06 06:58:05;;;;;;;4.22;2.40;;;;;;;21.20;55.53;98926.84;4251009;33;32956;-86
2021/08/06 07:00:33;;;;;;;3.35;2.60;;;;;;;20.89;56.28;98933.78;4274600;33;33927;-88
2021/08/06 07:03:01;;;;;;;2.92;2.40;;;;;;;21.19;55.45;98936.56;4274539;33;34790;-87
2021/08/06 07:05:29;;;;;;;2.85;2.55;;;;;;;21.25;55.88;98927.44;4274317;33;34209;-86
2021/08/06 07:07:57;;;;;;;2.40;2.08;;;;;;;21.56;54.65;98930.00;4286370;33;33545;-87
2021/08/06 07:10:26;;;;;;;2.87;2.22;;;;;;;21.45;54.97;98932.41;4274663;33;33844;-87
2021/08/06 07:12:55;;;;;;;2.42;2.12;;;;;;;21.72;54.50;98938.75;4250653;33;34904;-87
2021/08/06 07:15:23;;;;;;;4.78;2.22;;;;;;;22.18;54.47;98934.22;4250907;33;34440;-87
2021/08/06 07:17:51;;;;;;;2.20;2.00;;;;;;;22.42;53.05;98937.16;4262641;33;33868;-86
2021/08/06 07:20:24;;;;;;;2.00;1.80;;;;;;;22.59;52.94;98944.91;4263270;33;33954;-87
2021/08/06 07:22:55;;;;;;;4.10;2.08;;;;;;;22.73;52.83;98947.59;4262738;33;35509;-86
2021/08/06 07:25:23;;;;;;;3.55;2.05;;;;;;;22.17;51.79;98949.28;4250780;33;34481;-87
2021/08/06 07:27:54;;;;;;;2.37;1.65;;;;;;;22.59;51.49;98944.91;4262846;33;33681;-87
2021/08/06 07:30:23;;;;;;;2.90;1.50;;;;;;;22.93;50.99;98944.53;4274214;33;34009;-86
2021/08/06 07:32:51;;;;;;;3.25;2.03;;;;;;;22.81;50.53;98942.66;4262434;33;35076;-87
2021/08/06 07:35:21;;;;;;;2.22;1.70;;;;;;;22.47;51.68;98941.25;4262614;33;34856;-87
2021/08/06 07:37:50;;;;;;;2.55;1.65;;;;;;;22.78;50.45;98949.03;4274696;33;33233;-88
2021/08/06 07:40:18;;;;;;;2.42;1.60;;;;;;;23.09;50.33;98952.34;4262598;33;34807;-86
2021/08/06 07:42:47;;;;;;;1.95;1.27;;;;;;;23.37;49.16;98933.72;4262362;33;35048;-89
2021/08/06 07:45:15;;;;;;;3.37;1.55;;;;;;;23.27;48.19;98938.75;4285983;33;33594;-86
2021/08/06 07:47:42;;;;;;;4.37;1.45;;;;;;;23.33;47.93;98942.81;4285943;33;33499;-89
2021/08/06 07:50:11;;;;;;;2.28;1.40;;;;;;;23.37;46.77;98950.50;4262145;33;33304;-85
2021/08/06 07:52:39;;;;;;;3.12;1.55;;;;;;;23.23;49.45;98937.25;4250840;33;34945;-88
2021/08/06 07:55:09;;;;;;;3.15;1.48;;;;;;;23.43;49.34;98936.84;4286393;33;34913;-90
2021/08/06 07:57:37;;;;;;;2.10;1.30;;;;;;;23.62;47.81;98938.28;4251112;33;33366;-88
2021/08/06 08:00:06;;;;;;;1.48;1.30;;;;;;;23.48;47.47;98949.81;4274085;33;35680;-89
2021/08/06 08:02:43;;;;;;;2.62;1.67;;;;;;;23.55;47.63;98961.72;4263362;33;34679;-86
2021/08/06 08:05:15;;;;;;;2.08;1.45;;;;;;;23.41;46.57;98944.06;4273857;33;34339;-87
2021/08/06 08:07:43;;;;;;;3.08;1.30;;;;;;;23.21;48.02;98957.75;4250599;33;33722;-88
2021/08/06 08:10:11;;;;;;;5.82;1.80;;;;;;;23.13;48.46;98953.88;4274097;33;33439;-87
2021/08/06 08:12:39;;;;;;;1.90;1.30;;;;;;;23.48;46.97;98953.34;4273849;33;33935;-87
2021/08/06 08:15:08;;;;;;;2.72;1.60;;;;;;;23.53;47.76;98953.84;4285673;33;34515;-89
2021/08/06 08:17:36;;;;;;;4.30;1.80;;;;;;;23.56;47.18;98956.31;4262616;33;34266;-89
2021/08/06 08:20:05;;;;;;;4.55;1.90;;;;;;;23.74;47.16;98954.25;4262586;33;33482;-89
2021/08/06 08:22:33;;;;;;;2.90;1.15;;;;;;;23.82;47.32;98951.91;4274468;33;34250;-89
2021/08/06 08:25:00;;;;;;;2.45;1.20;;;;;;;23.74;46.48;98953.38;4274165;33;33539;-89
2021/08/06 08:27:29;;;;;;;1.85;1.20;;;;;;;24.04;46.86;98951.31;4274117;33;32827;-89
2021/08/06 08:29:59;;;;;;;2.83;1.50;;;;;;;24.13;46.25;98948.91;4238874;33;34007;-89
2021/08/06 08:32:30;;;;;;;2.00;1.42;;;;;;;24.02;47.00;98954.09;4263424;33;35514;-89
2021/08/06 08:34:58;;;;;;;2.83;1.48;;;;;;;24.19;45.75;98952.97;4262829;33;34369;-89
2021/08/06 08:37:25;;;;;;;1.85;1.30;;;;;;;24.01;46.47;98968.31;4274284;33;32896;-92
2021/08/06 08:40:13;;;;;;;2.05;1.40;;;;;;;24.03;46.41;98969.03;4273451;33;33416;-92
2021/08/06 08:42:44;;;;;;;1.60;1.27;;;;;;;24.21;46.45;98962.53;4262753;33;34594;-87
2021/08/06 08:45:12;;;;;;;1.20;1.10;;;;;;;23.99;46.42;98969.34;4262476;33;34183;-87
2021/08/06 08:47:43;;;;;;;2.62;1.08;;;;;;;23.98;46.23;98973.00;4262299;33;33522;-88
2021/08/06 08:50:14;;;;;;;1.92;1.10;;;;;;;23.92;46.31;98965.41;4273383;33;33391;-86
2021/08/06 08:52:42;;;;;;;1.20;0.80;;;;;;;24.15;45.67;98975.38;4262268;33;33879;-88
2021/08/06 08:55:12;;;;;;;2.25;1.00;;;;;;;24.22;44.75;98971.34;4262184;33;35005;-86
2021/08/06 08:57:39;;;;;;;1.73;1.00;;;;;;;24.42;44.46;98973.47;4262014;33;33506;-85
2021/08/06 09:00:09;;;;;;;1.52;1.00;;;;;;;24.64;43.77;98976.34;4261691;33;33449;-85
2021/08/06 09:02:41;;;;;;;1.75;1.00;;;;;;;24.57;43.66;98982.19;4262650;33;34053;-85
2021/08/06 09:05:23;;;;;;;1.37;0.88;;;;;;;24.67;42.59;98989.44;4261813;33;34156;-85
2021/08/06 09:07:52;;;;;;;1.00;0.85;;;;;;;24.60;43.79;98980.19;4262126;33;33126;-87
2021/08/06 09:10:27;;;;;;;2.45;1.00;;;;;;;24.78;43.80;98991.34;4261881;33;34019;-87
2021/08/06 09:13:02;;;;;;;2.65;1.05;;;;;;;24.96;43.36;98983.88;4262637;33;34555;-87
2021/08/06 09:15:50;;;;;;;2.62;0.98;;;;;;;24.70;43.24;98972.37;4261972;33;34650;-87
2021/08/06 09:18:26;;;;;;;0.80;0.80;;;;;;;24.88;42.71;98987.09;4250585;33;33577;-88
2021/08/06 09:20:53;;;;;;;1.00;0.88;;;;;;;24.98;42.13;98990.81;4274888;33;34723;-88
2021/08/06 09:24:00;;;;;;;1.20;0.90;;;;;;;25.00;43.14;98988.03;4250142;33;34234;-87
2021/08/06 09:26:43;;;;;;;2.65;1.10;;;;;;;25.22;42.52;98988.19;4220579;33;34420;-88
2021/08/06 09:29:21;;;;;;;1.42;1.00;;;;;;;25.45;41.93;98979.41;4248870;33;33804;-85
2021/08/06 09:31:57;;;;;;;1.90;1.00;;;;;;;25.06;42.70;98985.75;4285220;33;34022;-88
2021/08/06 09:34:31;;;;;;;1.80;1.50;;;;;;;25.23;42.79;98993.38;4273401;33;33898;-86
2021/08/06 09:37:07;;;;;;;1.50;1.10;;;;;;;25.31;42.92;98990.16;4250226;33;35027;-87
2021/08/06 09:39:52;;;;;;;1.85;0.98;;;;;;;25.24;41.76;98994.25;4273375;33;33391;-88
2021/08/06 09:42:32;;;;;;;3.90;1.20;;;;;;;25.04;41.85;99008.13;4272148;33;33293;-88
2021/08/06 09:45:04;;;;;;;3.42;1.27;;;;;;;25.05;41.96;99004.50;4249946;33;34903;-88
2021/08/06 09:47:33;;;;;;;;;;;;;;;25.37;42.44;99005.69;4250385;33;33489;-88
2021/08/06 09:50:04;;;;;;;2.80;1.77;;;;;;;25.15;42.05;98994.91;4273307;33;32917;-88
2021/08/06 09:52:34;;;;;;;1.35;1.20;;;;;;;24.94;41.41;99007.91;4249904;33;33370;-89
2021/08/06 09:55:26;;;;;;;1.80;1.55;;;;;;;24.97;42.09;98994.41;4271582;33;34577;-89
2021/08/06 09:57:55;;;;;;;2.90;1.42;;;;;;;24.98;42.47;99004.09;4261636;33;34297;-88
2021/08/06 10:00:24;;;;;;;1.73;1.17;;;;;;;24.99;41.54;98996.94;4273050;33;33914;-88
2021/08/06 10:02:54;;;;;;;1.33;1.17;;;;;;;25.15;42.21;98997.56;4249798;33;33721;-88
2021/08/06 10:05:26;;;;;;;2.92;1.30;;;;;;;25.21;41.59;98999.78;4261870;33;34550;-88
2021/08/06 10:07:56;;;;;;;1.42;1.08;;;;;;;24.93;42.79;99005.38;4250309;33;33636;-89
2021/08/06 10:10:36;;;;;;;3.40;1.50;;;;;;;24.93;42.22;99008.03;4250138;33;32819;-89
2021/08/06 10:13:05;;;;;;;2.90;1.60;;;;;;;24.91;43.02;99007.31;4249787;33;33268;-89
2021/08/06 10:15:33;;;;;;;1.50;1.40;;;;;;;25.06;41.99;99004.38;4261451;33;34071;-90
2021/08/06 10:18:00;;;;;;;1.50;1.23;;;;;;;25.20;42.68;99006.06;4261109;33;33678;-89
2021/08/06 10:20:29;;;;;;;1.40;1.30;;;;;;;25.51;42.18;99005.56;4272969;33;33764;-88
2021/08/06 10:22:57;;;;;;;1.65;1.10;;;;;;;25.33;41.00;99005.06;4273271;33;34248;-88
2021/08/06 10:25:25;;;;;;;2.47;1.35;;;;;;;25.35;41.07;98996.97;4249503;33;34909;-89
2021/08/06 10:27:53;;;;;;;1.65;1.17;;;;;;;25.37;41.78;99005.69;4261706;33;34171;-89
2021/08/06 10:30:30;;;;;;;4.53;1.35;;;;;;;25.67;41.49;99002.63;4273615;33;32834;-90
2021/08/06 10:33:24;;;;;;;1.48;1.30;;;;;;;25.85;39.70;98996.78;4261780;33;33953;-89
2021/08/06 10:36:06;;;;;;;2.12;1.30;;;;;;;25.71;40.28;98999.62;4250692;33;35112;-89
2021/08/06 10:38:42;;;;;;;1.48;1.30;;;;;;;25.64;41.06;98998.38;4250390;33;33611;-88
2021/08/06 10:41:20;;;;;;;1.35;1.23;;;;;;;25.52;42.26;99009.94;4249542;33;33763;-88
2021/08/06 10:44:02;;;;;;;2.12;1.70;;;;;;;25.82;40.14;99004.13;4261232;33;32906;-88
2021/08/06 10:46:50;;;;;;;2.10;1.25;;;;;;;25.72;40.16;99005.81;4261357;33;34669;-86
2021/08/06 10:49:17;;;;;;;1.55;1.12;;;;;;;25.81;40.24;99003.31;4248844;33;33634;-87
2021/08/06 10:51:45;;;;;;;2.03;1.33;;;;;;;25.64;40.83;99009.03;4260974;33;33723;-87
2021/08/06 10:54:12;;;;;;;2.75;1.35;;;;;;;25.91;39.56;98996.28;4274147;33;33995;-88
2021/08/06 10:56:40;;;;;;;1.80;1.30;;;;;;;26.05;39.48;98992.63;4262728;33;34618;-88
2021/08/06 10:59:11;;;;;;;1.48;1.25;;;;;;;26.13;38.35;99001.75;4251187;33;34310;-87
2021/08/06 11:01:42;;;;;;;1.67;1.25;;;;;;;26.00;39.81;99000.97;4262327;33;32799;-87
2021/08/06 11:04:13;;;;;;;;;;;;;;;26.18;39.12;98996.91;4262913;33;33310;-87
2021/08/06 11:06:47;;;;;;;3.05;1.50;;;;;;;25.87;39.24;98994.84;4274425;33;34748;-87
2021/08/06 11:09:25;;;;;;;1.35;1.20;;;;;;;26.22;39.26;98991.38;4262790;33;33911;-88
2021/08/06 11:12:00;;;;;;;2.42;1.30;;;;;;;26.38;38.71;99000.72;4262753;33;33780;-87
2021/08/06 11:14:28;;;;;;;1.42;1.33;;;;;;;26.43;37.68;98995.91;4274469;33;33364;-88
2021/08/06 11:17:04;;;;;;;2.10;1.30;;;;;;;26.58;37.23;98991.16;4274619;33;34021;-87
2021/08/06 11:19:34;;;;;;;1.40;1.30;;;;;;;26.41;38.85;98999.62;4262616;33;34871;-89
2021/08/06 11:22:07;;;;;;;2.03;1.33;;;;;;;26.70;38.58;98995.53;4262511;33;33475;-86
2021/08/06 11:24:37;;;;;;;1.70;1.23;;;;;;;26.62;36.24;99003.31;4274379;33;34742;-85
2021/08/06 11:27:05;;;;;;;2.55;1.33;;;;;;;26.55;36.91;99008.28;4262390;33;34763;-86
2021/08/06 11:29:32;;;;;;;2.83;1.40;;;;;;;26.42;37.91;99006.66;4262514;33;34820;-86
2021/08/06 11:32:06;;;;;;;1.83;1.50;;;;;;;26.44;37.72;99007.38;4274260;33;33555;-85
2021/08/06 11:34:55;;;;;;;1.70;1.50;;;;;;;26.35;37.30;99006.28;4262418;33;33296;-85
2021/08/06 11:37:46;;;;;;;1.60;1.50;;;;;;;26.36;38.14;99005.34;4262496;33;34808;-86
2021/08/06 11:40:15;;;;;;;1.40;1.30;;;;;;;26.56;38.02;99006.44;4275316;33;34921;-87
2021/08/06 11:42:46;;;;;;;1.65;1.30;;;;;;;26.19;37.10;99000.44;4262918;33;34411;-86
2021/08/06 11:45:17;;;;;;;1.45;1.25;;;;;;;25.88;38.74;99006.34;4250738;33;34297;-87
2021/08/06 11:47:47;;;;;;;2.83;1.48;;;;;;;26.17;38.80;99000.53;4239232;33;33783;-87
2021/08/06 11:50:21;;;;;;;1.60;1.40;;;;;;;26.55;38.73;98997.59;4239113;33;33827;-87